sensor_id;sensor_type;location;lat;lon;timestamp;P1;durP1;ratioP1;P2;durP2;ratioP2
26838;SDS011;40088;51.214;6.786;2022-08-16T00:04:15;3.67;;;3.38;;
26838;SDS011;40088;51.214;6.786;2022-08-16T00:14:18;3.50;;;3.20;;
26838;SDS011;40088;51.214;6.786;2022-08-16T00:24:23;3.55;;;3.20;;
26838;SDS011;40088;51.214;6.786;2022-08-16T00:34:25;5.53;;;4.97;;
26838;SDS011;40088;51.214;6.786;2022-08-16T00:44:25;6.80;;;6.20;;
26838;SDS011;40088;51.214;6.786;2022-08-16T00:54:27;4.03;;;3.72;;
26838;SDS011;40088;51.214;6.786;2022-08-16T01:04:29;5.22;;;4.72;;
26838;SDS011;40088;51.214;6.786;2022-08-16T01:14:30;3.88;;;3.47;;
26838;SDS011;40088;51.214;6.786;2022-08-16T01:24:41;5.60;;;5.10;;
26838;SDS011;40088;51.214;6.786;2022-08-16T01:34:45;3.90;;;3.60;;
26838;SDS011;40088;51.214;6.786;2022-08-16T01:44:46;4.13;;;3.72;;
26838;SDS011;40088;51.214;6.786;2022-08-16T01:54:46;4.95;;;3.60;;
26838;SDS011;40088;51.214;6.786;2022-08-16T02:04:46;4.05;;;3.70;;
26838;SDS011;40088;51.214;6.786;2022-08-16T02:14:47;4.25;;;3.88;;
26838;SDS011;40088;51.214;6.786;2022-08-16T02:24:48;3.88;;;3.30;;
26838;SDS011;40088;51.214;6.786;2022-08-16T02:34:48;6.07;;;5.57;;
26838;SDS011;40088;51.214;6.786;2022-08-16T02:44:48;3.80;;;3.50;;
26838;SDS011;40088;51.214;6.786;2022-08-16T02:54:49;4.15;;;3.75;;
26838;SDS011;40088;51.214;6.786;2022-08-16T03:04:49;4.57;;;3.42;;
26838;SDS011;40088;51.214;6.786;2022-08-16T03:14:50;5.05;;;4.55;;
26838;SDS011;40088;51.214;6.786;2022-08-16T03:24:50;3.78;;;3.47;;
26838;SDS011;40088;51.214;6.786;2022-08-16T03:34:50;3.80;;;3.50;;
26838;SDS011;40088;51.214;6.786;2022-08-16T03:44:51;3.57;;;3.27;;
26838;SDS011;40088;51.214;6.786;2022-08-16T03:54:51;3.65;;;3.35;;
26838;SDS011;40088;51.214;6.786;2022-08-16T04:04:52;4.20;;;3.80;;
26838;SDS011;40088;51.214;6.786;2022-08-16T04:14:53;3.57;;;3.23;;
26838;SDS011;40088;51.214;6.786;2022-08-16T04:24:53;3.97;;;3.33;;
26838;SDS011;40088;51.214;6.786;2022-08-16T04:34:53;4.45;;;3.58;;
26838;SDS011;40088;51.214;6.786;2022-08-16T04:44:53;3.80;;;3.50;;
26838;SDS011;40088;51.214;6.786;2022-08-16T04:54:54;4.20;;;3.67;;
26838;SDS011;40088;51.214;6.786;2022-08-16T05:04:55;3.97;;;3.40;;
26838;SDS011;40088;51.214;6.786;2022-08-16T05:14:55;3.75;;;3.30;;
26838;SDS011;40088;51.214;6.786;2022-08-16T05:24:55;5.68;;;4.18;;
26838;SDS011;40088;51.214;6.786;2022-08-16T05:34:55;4.00;;;3.53;;
26838;SDS011;40088;51.214;6.786;2022-08-16T05:44:56;4.28;;;3.63;;
26838;SDS011;40088;51.214;6.786;2022-08-16T05:54:56;3.60;;;3.25;;
26838;SDS011;40088;51.214;6.786;2022-08-16T06:04:56;4.32;;;3.60;;
26838;SDS011;40088;51.214;6.786;2022-08-16T06:14:57;4.20;;;3.80;;
26838;SDS011;40088;51.214;6.786;2022-08-16T06:25:00;4.10;;;3.70;;
26838;SDS011;40088;51.214;6.786;2022-08-16T06:35:01;3.50;;;3.20;;
26838;SDS011;40088;51.214;6.786;2022-08-16T06:45:02;4.15;;;3.75;;
26838;SDS011;40088;51.214;6.786;2022-08-16T06:55:03;4.72;;;3.88;;
26838;SDS011;40088;51.214;6.786;2022-08-16T07:05:05;3.60;;;3.30;;
26838;SDS011;40088;51.214;6.786;2022-08-16T07:15:07;3.97;;;3.45;;
26838;SDS011;40088;51.214;6.786;2022-08-16T07:25:09;3.83;;;3.17;;
26838;SDS011;40088;51.214;6.786;2022-08-16T07:35:11;3.20;;;2.80;;
26838;SDS011;40088;51.214;6.786;2022-08-16T07:45:12;4.10;;;3.70;;
26838;SDS011;40088;51.214;6.786;2022-08-16T07:55:13;4.05;;;3.47;;
26838;SDS011;40088;51.214;6.786;2022-08-16T08:05:15;4.75;;;4.07;;
26838;SDS011;40088;51.214;6.786;2022-08-16T08:15:17;3.92;;;3.13;;
26838;SDS011;40088;51.214;6.786;2022-08-16T08:25:18;3.65;;;3.17;;
26838;SDS011;40088;51.214;6.786;2022-08-16T08:35:19;4.72;;;3.10;;
26838;SDS011;40088;51.214;6.786;2022-08-16T08:45:20;3.78;;;3.28;;
26838;SDS011;40088;51.214;6.786;2022-08-16T08:55:21;3.40;;;3.15;;
26838;SDS011;40088;51.214;6.786;2022-08-16T09:05:22;4.25;;;3.38;;
26838;SDS011;40088;51.214;6.786;2022-08-16T09:15:26;3.95;;;3.50;;
26838;SDS011;40088;51.214;6.786;2022-08-16T09:25:27;4.82;;;3.25;;
26838;SDS011;40088;51.214;6.786;2022-08-16T09:35:28;4.53;;;4.10;;
26838;SDS011;40088;51.214;6.786;2022-08-16T09:45:28;4.35;;;3.90;;
26838;SDS011;40088;51.214;6.786;2022-08-16T09:55:29;3.83;;;3.40;;
26838;SDS011;40088;51.214;6.786;2022-08-16T10:05:31;3.83;;;3.53;;
26838;SDS011;40088;51.214;6.786;2022-08-16T10:15:35;3.60;;;3.30;;
26838;SDS011;40088;51.214;6.786;2022-08-16T10:25:36;3.80;;;3.28;;
26838;SDS011;40088;51.214;6.786;2022-08-16T10:35:40;3.63;;;3.33;;
26838;SDS011;40088;51.214;6.786;2022-08-16T10:45:42;3.55;;;3.25;;
26838;SDS011;40088;51.214;6.786;2022-08-16T10:55:42;3.95;;;3.60;;
26838;SDS011;40088;51.214;6.786;2022-08-16T11:05:42;3.58;;;3.28;;
26838;SDS011;40088;51.214;6.786;2022-08-16T11:15:43;4.20;;;3.80;;
26838;SDS011;40088;51.214;6.786;2022-08-16T11:25:43;4.50;;;3.70;;
26838;SDS011;40088;51.214;6.786;2022-08-16T11:35:44;4.35;;;3.95;;
26838;SDS011;40088;51.214;6.786;2022-08-16T11:45:46;4.30;;;3.80;;
26838;SDS011;40088;51.214;6.786;2022-08-16T11:55:47;4.15;;;3.72;;
26838;SDS011;40088;51.214;6.786;2022-08-16T12:05:48;4.35;;;3.95;;
26838;SDS011;40088;51.214;6.786;2022-08-16T12:15:48;10.02;;;9.13;;
26838;SDS011;40088;51.214;6.786;2022-08-16T12:25:48;4.65;;;4.10;;
26838;SDS011;40088;51.214;6.786;2022-08-16T12:35:49;4.63;;;4.22;;
26838;SDS011;40088;51.214;6.786;2022-08-16T12:45:51;4.43;;;4.03;;
26838;SDS011;40088;51.214;6.786;2022-08-16T12:55:53;5.38;;;4.88;;
26838;SDS011;40088;51.214;6.786;2022-08-16T13:05:53;5.13;;;4.55;;
26838;SDS011;40088;51.214;6.786;2022-08-16T13:15:55;6.97;;;6.27;;
26838;SDS011;40088;51.214;6.786;2022-08-16T13:25:58;6.10;;;5.50;;
26838;SDS011;40088;51.214;6.786;2022-08-16T13:35:59;6.18;;;5.57;;
26838;SDS011;40088;51.214;6.786;2022-08-16T13:45:59;5.85;;;5.25;;
26838;SDS011;40088;51.214;6.786;2022-08-16T13:56:02;7.28;;;6.57;;
26838;SDS011;40088;51.214;6.786;2022-08-16T14:06:03;19.10;;;7.38;;
26838;SDS011;40088;51.214;6.786;2022-08-16T14:16:03;16.73;;;6.90;;
26838;SDS011;40088;51.214;6.786;2022-08-16T14:26:04;7.43;;;5.78;;
26838;SDS011;40088;51.214;6.786;2022-08-16T14:36:04;8.13;;;7.38;;
26838;SDS011;40088;51.214;6.786;2022-08-16T14:46:05;41.45;;;36.90;;
26838;SDS011;40088;51.214;6.786;2022-08-16T14:56:06;50.38;;;45.03;;
26838;SDS011;40088;51.214;6.786;2022-08-16T15:06:06;18.57;;;16.33;;
26838;SDS011;40088;51.214;6.786;2022-08-16T15:16:07;17.02;;;14.73;;
26838;SDS011;40088;51.214;6.786;2022-08-16T15:26:07;13.85;;;12.23;;
26838;SDS011;40088;51.214;6.786;2022-08-16T15:36:08;14.82;;;10.55;;
26838;SDS011;40088;51.214;6.786;2022-08-16T15:46:08;15.80;;;9.75;;
26838;SDS011;40088;51.214;6.786;2022-08-16T15:56:23;13.52;;;9.65;;
26838;SDS011;40088;51.214;6.786;2022-08-16T16:06:24;14.45;;;9.35;;
26838;SDS011;40088;51.214;6.786;2022-08-16T16:16:24;14.75;;;11.60;;
26838;SDS011;40088;51.214;6.786;2022-08-16T16:26:24;12.52;;;11.10;;
26838;SDS011;40088;51.214;6.786;2022-08-16T16:36:26;10.95;;;9.45;;
26838;SDS011;40088;51.214;6.786;2022-08-16T16:46:33;11.52;;;10.43;;
26838;SDS011;40088;51.214;6.786;2022-08-16T16:56:35;12.70;;;11.37;;
26838;SDS011;40088;51.214;6.786;2022-08-16T17:06:36;14.50;;;11.90;;
26838;SDS011;40088;51.214;6.786;2022-08-16T17:16:37;12.95;;;11.32;;
26838;SDS011;40088;51.214;6.786;2022-08-16T17:26:38;28.02;;;20.60;;
26838;SDS011;40088;51.214;6.786;2022-08-16T17:36:39;21.08;;;18.13;;
26838;SDS011;40088;51.214;6.786;2022-08-16T17:46:40;19.17;;;17.23;;
26838;SDS011;40088;51.214;6.786;2022-08-16T17:56:40;18.60;;;16.20;;
26838;SDS011;40088;51.214;6.786;2022-08-16T18:06:40;18.35;;;16.45;;
26838;SDS011;40088;51.214;6.786;2022-08-16T18:16:41;22.88;;;17.35;;
26838;SDS011;40088;51.214;6.786;2022-08-16T18:26:41;25.05;;;19.50;;
26838;SDS011;40088;51.214;6.786;2022-08-16T18:36:42;28.45;;;17.23;;
26838;SDS011;40088;51.214;6.786;2022-08-16T18:46:43;21.70;;;17.58;;
26838;SDS011;40088;51.214;6.786;2022-08-16T18:56:45;24.27;;;19.00;;
26838;SDS011;40088;51.214;6.786;2022-08-16T19:06:46;20.20;;;18.05;;
26838;SDS011;40088;51.214;6.786;2022-08-16T19:16:46;21.45;;;17.35;;
26838;SDS011;40088;51.214;6.786;2022-08-16T19:26:46;22.15;;;17.63;;
26838;SDS011;40088;51.214;6.786;2022-08-16T19:36:47;25.10;;;19.90;;
26838;SDS011;40088;51.214;6.786;2022-08-16T19:46:47;26.98;;;22.27;;
26838;SDS011;40088;51.214;6.786;2022-08-16T19:56:48;26.47;;;23.50;;
26838;SDS011;40088;51.214;6.786;2022-08-16T20:06:49;36.28;;;28.55;;
26838;SDS011;40088;51.214;6.786;2022-08-16T20:16:50;32.67;;;27.55;;
26838;SDS011;40088;51.214;6.786;2022-08-16T20:26:51;38.47;;;31.70;;
26838;SDS011;40088;51.214;6.786;2022-08-16T20:36:51;38.27;;;31.90;;
26838;SDS011;40088;51.214;6.786;2022-08-16T20:46:51;39.65;;;34.58;;
26838;SDS011;40088;51.214;6.786;2022-08-16T20:56:52;36.58;;;31.30;;
26838;SDS011;40088;51.214;6.786;2022-08-16T21:06:52;34.55;;;30.25;;
26838;SDS011;40088;51.214;6.786;2022-08-16T21:16:54;40.05;;;33.45;;
26838;SDS011;40088;51.214;6.786;2022-08-16T21:26:54;38.38;;;33.78;;
26838;SDS011;40088;51.214;6.786;2022-08-16T21:36:55;38.80;;;34.60;;
26838;SDS011;40088;51.214;6.786;2022-08-16T21:46:55;38.92;;;33.28;;
26838;SDS011;40088;51.214;6.786;2022-08-16T21:56:55;39.30;;;33.67;;
26838;SDS011;40088;51.214;6.786;2022-08-16T22:06:55;40.85;;;31.05;;
26838;SDS011;40088;51.214;6.786;2022-08-16T22:16:56;48.55;;;37.88;;
26838;SDS011;40088;51.214;6.786;2022-08-16T22:26:57;34.20;;;30.20;;
26838;SDS011;40088;51.214;6.786;2022-08-16T22:36:57;39.65;;;34.80;;
26838;SDS011;40088;51.214;6.786;2022-08-16T22:46:58;33.90;;;30.30;;
26838;SDS011;40088;51.214;6.786;2022-08-16T22:56:58;32.92;;;29.15;;
26838;SDS011;40088;51.214;6.786;2022-08-16T23:06:59;59.87;;;34.93;;
26838;SDS011;40088;51.214;6.786;2022-08-16T23:16:59;48.42;;;30.00;;
26838;SDS011;40088;51.214;6.786;2022-08-16T23:27:00;62.35;;;33.53;;
26838;SDS011;40088;51.214;6.786;2022-08-16T23:37:00;85.93;;;39.20;;
26838;SDS011;40088;51.214;6.786;2022-08-16T23:47:00;80.13;;;36.58;;
26838;SDS011;40088;51.214;6.786;2022-08-16T23:57:01;67.95;;;35.50;;
